Time;durP1;ratioP1;P1;durP2;ratioP2;P2;SDS_P1;SDS_P2;PMS_P1;PMS_P2;Temp;Humidity;BMP_temperature;BMP_pressure;BME280_temperature;BME280_humidity;BME280_pressure;Samples;Min_cycle;Max_cycle;Signal;HPM_P1;HPM_P2
2022/11/24 05:01:16;;;;;;;;;;;19.80;99.90;;;;;;5649636;23;19933;-81
2022/11/24 05:03:42;;;;;;;;;;;19.70;99.90;;;;;;4982876;28;19949;-80
2022/11/24 05:06:09;;;;;;;;;;;19.80;99.90;;;;;;4983914;28;19933;-80
2022/11/24 05:08:35;;;;;;;;;;;19.70;99.90;;;;;;4982545;28;19934;-81
2022/11/24 05:11:03;;;;;;;;;;;19.60;99.90;;;;;;4984139;28;19948;-81
2022/11/24 05:13:30;;;;;;;;;;;19.70;99.90;;;;;;4984062;28;20270;-82
2022/11/24 05:15:56;;;;;;;;;;;19.80;99.90;;;;;;4984793;28;19933;-82
2022/11/24 05:18:24;;;;;;;;;;;19.70;99.90;;;;;;4983357;28;20304;-81
2022/11/24 05:20:53;;;;;;;;;;;19.70;99.90;;;;;;4982979;28;20002;-82
2022/11/24 05:23:26;;;;;;;;;;;19.70;99.90;;;;;;4985463;28;20013;-82
2022/11/24 05:25:53;;;;;;;;;;;19.40;99.90;;;;;;4983404;28;20397;-82
2022/11/24 05:28:19;;;;;;;;;;;19.70;99.90;;;;;;4984685;28;19926;-82
2022/11/24 05:30:46;;;;;;;;;;;19.60;99.90;;;;;;4982130;28;19926;-78
2022/11/24 05:33:17;;;;;;;;;;;19.60;99.90;;;;;;4979239;28;19926;-79
2022/11/24 05:35:46;;;;;;;;;;;19.60;99.90;;;;;;4981846;28;20029;-79
2022/11/24 05:38:12;;;;;;;;;;;19.60;99.90;;;;;;4982518;28;19933;-78
2022/11/24 05:40:39;;;;;;;;;;;19.60;99.90;;;;;;4979868;28;19934;-79
2022/11/24 05:43:09;;;;;;;;;;;19.60;99.90;;;;;;4979588;28;19930;-79
2022/11/24 05:45:36;;;;;;;;;;;19.60;99.90;;;;;;4981773;28;19927;-81
2022/11/24 05:48:06;;;;;;;;;;;19.60;99.90;;;;;;4982130;28;19926;-79
2022/11/24 05:50:33;;;;;;;;;;;19.60;99.90;;;;;;4981763;28;19973;-79
2022/11/24 05:53:03;;;;;;;;;;;19.60;99.90;;;;;;4982162;28;20382;-81
2022/11/24 05:55:30;;;;;;;;;;;19.60;99.90;;;;;;4980427;28;20334;-78
2022/11/24 05:58:00;;;;;;;;;;;19.60;99.90;;;;;;4977674;28;19933;-79
2022/11/24 06:00:27;;;;;;;;;;;19.70;99.90;;;;;;4977750;28;19926;-82
2022/11/24 06:02:53;;;;;;;;;;;19.60;99.90;;;;;;4978181;28;19926;-79
2022/11/24 06:05:20;;;;;;;;;;;19.60;99.90;;;;;;4977771;28;19930;-80
2022/11/24 06:07:47;;;;;;;;;;;19.70;99.90;;;;;;4978252;28;19933;-79
2022/11/24 06:10:15;;;;;;;;;;;19.70;99.90;;;;;;4978386;28;19926;-81
2022/11/24 11:10:34;;;;;;;;;;;19.70;95.80;;;;;;5594766;23;19996;-75
2022/11/24 11:13:10;;;;;;;;;;;19.70;95.80;;;;;;4979519;28;19926;-74
2022/11/24 11:15:37;;;;;;;;;;;19.70;95.80;;;;;;4980931;28;19958;-75
2022/11/24 11:18:04;;;;;;;;;;;19.70;95.80;;;;;;4981091;28;19926;-75
2022/11/24 11:20:32;;;;;;;;;;;19.70;95.90;;;;;;4981494;28;19926;-76
2022/11/24 11:23:01;;;;;;;;;;;19.70;95.90;;;;;;4981009;28;20343;-75
2022/11/24 11:25:31;;;;;;;;;;;19.80;96.00;;;;;;4981367;28;19981;-75
2022/11/24 11:28:18;;;;;;;;;;;19.70;95.90;;;;;;4981478;28;19993;-75
2022/11/24 11:30:55;;;;;;;;;;;19.70;95.90;;;;;;4980566;28;19948;-75
2022/11/24 11:33:23;;;;;;;;;;;19.70;95.90;;;;;;4980701;28;19926;-75
2022/11/24 11:35:50;;;;;;;;;;;19.70;95.90;;;;;;4980258;28;19981;-75
2022/11/24 11:38:17;;;;;;;;;;;19.70;96.00;;;;;;4980666;28;19958;-75
2022/11/24 11:40:45;;;;;;;;;;;19.80;96.00;;;;;;4981091;28;19926;-75
2022/11/24 11:43:21;;;;;;;;;;;19.70;96.00;;;;;;4981107;28;19933;-75
2022/11/24 11:45:50;;;;;;;;;;;19.70;96.00;;;;;;4981646;28;19933;-75
2022/11/24 11:48:24;;;;;;;;;;;19.50;95.90;;;;;;4976793;28;19933;-77
2022/11/24 11:50:52;;;;;;;;;;;19.80;96.00;;;;;;4980620;28;19934;-76
2022/11/24 11:53:23;;;;;;;;;;;19.70;96.00;;;;;;4980455;28;19992;-76
2022/11/24 11:55:55;;;;;;;;;;;19.70;96.00;;;;;;4980261;28;19977;-76
2022/11/24 11:58:33;;;;;;;;;;;19.80;96.10;;;;;;4980789;28;20377;-76
2022/11/24 12:01:03;;;;;;;;;;;19.70;96.10;;;;;;4979736;28;19976;-76
2022/11/24 12:03:38;;;;;;;;;;;19.80;96.10;;;;;;4980894;28;20277;-76
2022/11/24 12:06:13;;;;;;;;;;;19.80;96.10;;;;;;4980810;28;19973;-76
2022/11/24 12:08:47;;;;;;;;;;;19.70;96.10;;;;;;4980548;28;19984;-76
2022/11/24 12:11:17;;;;;;;;;;;19.80;96.20;;;;;;4981162;28;19925;-76
2022/11/24 12:14:03;;;;;;;;;;;19.80;96.30;;;;;;4977210;28;19926;-76
2022/11/24 12:16:35;;;;;;;;;;;19.80;96.40;;;;;;4976261;28;19926;-76
2022/11/24 12:19:08;;;;;;;;;;;19.80;96.50;;;;;;4975215;28;19926;-76
2022/11/24 12:21:38;;;;;;;;;;;19.80;96.70;;;;;;4975163;28;19926;-76
2022/11/24 12:24:10;;;;;;;;;;;19.90;97.00;;;;;;4975102;28;19926;-76
2022/11/24 12:26:41;;;;;;;;;;;19.90;97.20;;;;;;4975145;28;19933;-76
2022/11/24 12:29:17;;;;;;;;;;;20.00;97.50;;;;;;4974770;28;19933;-76
2022/11/24 12:31:50;;;;;;;;;;;20.00;98.00;;;;;;4974991;28;20022;-76
2022/11/24 12:34:24;;;;;;;;;;;20.00;97.70;;;;;;4975026;28;19941;-76
2022/11/24 12:37:01;;;;;;;;;;;20.00;98.00;;;;;;4980839;28;19927;-76
2022/11/24 12:39:29;;;;;;;;;;;20.00;98.30;;;;;;4980582;28;20302;-79
2022/11/24 12:42:03;;;;;;;;;;;20.00;98.60;;;;;;4979463;28;19926;-79
2022/11/24 12:44:43;;;;;;;;;;;20.00;99.10;;;;;;4981746;28;19930;-77
2022/11/24 12:47:13;;;;;;;;;;;20.00;99.10;;;;;;4978875;28;19930;-78
2022/11/24 12:49:41;;;;;;;;;;;20.00;99.40;;;;;;4979348;28;19930;-77
2022/11/24 12:52:12;;;;;;;;;;;20.00;99.80;;;;;;4978491;28;19926;-77
2022/11/24 12:54:39;;;;;;;;;;;20.10;99.90;;;;;;4978295;28;19926;-77
2022/11/24 12:57:10;;;;;;;;;;;20.10;99.90;;;;;;4978493;28;19937;-77
2022/11/24 12:59:44;;;;;;;;;;;20.10;99.90;;;;;;4978413;28;19926;-77
2022/11/24 13:02:18;;;;;;;;;;;20.10;99.90;;;;;;4978221;28;19933;-77
2022/11/24 13:04:47;;;;;;;;;;;20.10;99.90;;;;;;4978168;28;19933;-77
2022/11/24 13:07:16;;;;;;;;;;;20.10;99.90;;;;;;4978051;28;19926;-77
2022/11/24 13:09:57;;;;;;;;;;;20.10;99.90;;;;;;4978377;28;19926;-78
2022/11/24 13:12:24;;;;;;;;;;;20.10;99.90;;;;;;4977207;28;19930;-77
2022/11/24 13:14:52;;;;;;;;;;;20.10;99.90;;;;;;4978273;28;19933;-77
2022/11/24 13:17:23;;;;;;;;;;;20.00;99.90;;;;;;4978234;28;19933;-77
2022/11/24 13:19:50;;;;;;;;;;;20.00;99.90;;;;;;4977814;28;19929;-77
2022/11/24 13:22:18;;;;;;;;;;;20.00;99.90;;;;;;4978011;28;19927;-75
2022/11/24 13:24:44;;;;;;;;;;;20.00;99.90;;;;;;4977797;28;19926;-75
2022/11/24 13:27:26;;;;;;;;;;;20.00;99.90;;;;;;4978004;28;19926;-74
2022/11/24 13:29:54;;;;;;;;;;;20.00;99.90;;;;;;4977749;28;20017;-74
2022/11/24 13:32:50;;;;;;;;;;;20.00;99.90;;;;;;4977680;28;19933;-75
2022/11/24 13:35:17;;;;;;;;;;;20.00;99.90;;;;;;4977589;28;20382;-75
2022/11/24 13:37:45;;;;;;;;;;;20.00;99.90;;;;;;4979111;28;19926;-75
2022/11/24 13:40:28;;;;;;;;;;;20.00;99.90;;;;;;4978463;28;19949;-77
2022/11/24 13:43:14;;;;;;;;;;;20.00;99.90;;;;;;4976837;28;19933;-77
2022/11/24 13:45:51;;;;;;;;;;;20.00;99.90;;;;;;4977427;28;19926;-77
2022/11/24 13:48:36;;;;;;;;;;;20.10;99.90;;;;;;4976074;28;19926;-75
2022/11/24 13:51:08;;;;;;;;;;;20.10;99.90;;;;;;4977013;28;19937;-75
2022/11/24 13:53:36;;;;;;;;;;;20.10;99.90;;;;;;4976852;28;19926;-75
2022/11/24 13:56:05;;;;;;;;;;;20.10;99.90;;;;;;4979799;28;19933;-80
2022/11/24 13:58:35;;;;;;;;;;;20.10;99.90;;;;;;4980852;28;19927;-80
2022/11/24 14:01:17;;;;;;;;;;;20.10;99.90;;;;;;4980417;28;20293;-80
2022/11/24 14:03:50;;;;;;;;;;;20.10;99.90;;;;;;4979928;28;19932;-80
2022/11/24 14:06:21;;;;;;;;;;;20.10;99.90;;;;;;4979771;28;19926;-80
2022/11/24 14:08:48;;;;;;;;;;;20.10;99.90;;;;;;4979662;28;19952;-80
2022/11/24 14:11:16;;;;;;;;;;;20.10;99.90;;;;;;4980321;28;20413;-80
2022/11/24 14:13:43;;;;;;;;;;;20.00;99.90;;;;;;4979791;28;19926;-80
2022/11/24 14:16:14;;;;;;;;;;;20.10;99.90;;;;;;4979650;28;19933;-81
2022/11/24 14:18:42;;;;;;;;;;;20.10;99.90;;;;;;4979662;28;19953;-80
2022/11/24 14:21:23;;;;;;;;;;;20.10;99.90;;;;;;4978941;28;20401;-80
2022/11/24 14:23:50;;;;;;;;;;;20.10;99.90;;;;;;4979539;28;19926;-80
2022/11/24 14:26:19;;;;;;;;;;;20.30;99.90;;;;;;4979235;28;19926;-80
2022/11/24 14:28:46;;;;;;;;;;;20.10;99.90;;;;;;4979303;28;19934;-80
2022/11/24 14:31:18;;;;;;;;;;;20.00;99.90;;;;;;4979078;28;19933;-80
2022/11/24 14:33:46;;;;;;;;;;;20.00;99.90;;;;;;4979105;28;19934;-80
2022/11/24 14:36:14;;;;;;;;;;;20.10;99.90;;;;;;4978439;28;19927;-80
2022/11/24 14:38:40;;;;;;;;;;;19.90;99.90;;;;;;4978380;28;19930;-79
2022/11/24 14:41:14;;;;;;;;;;;20.00;99.90;;;;;;4978006;28;20432;-79
2022/11/24 14:43:40;;;;;;;;;;;20.00;99.90;;;;;;4978564;28;19930;-80
2022/11/24 14:46:08;;;;;;;;;;;19.90;99.90;;;;;;4978145;28;19933;-80
2022/11/24 14:48:37;;;;;;;;;;;19.90;99.90;;;;;;4978203;28;19926;-80
2022/11/24 14:51:06;;;;;;;;;;;19.90;99.90;;;;;;4978413;28;19926;-80
2022/11/24 14:53:33;;;;;;;;;;;19.80;99.90;;;;;;4978429;28;20300;-80
2022/11/24 14:56:10;;;;;;;;;;;19.90;99.90;;;;;;4977841;28;19933;-79
2022/11/24 14:58:37;;;;;;;;;;;19.90;99.90;;;;;;4978303;28;19926;-79
2022/11/24 15:01:10;;;;;;;;;;;20.00;99.90;;;;;;4979593;28;20258;-82
2022/11/24 15:03:37;;;;;;;;;;;19.90;99.90;;;;;;4982181;28;20301;-82
2022/11/24 15:06:04;;;;;;;;;;;19.80;99.90;;;;;;4981902;28;19933;-82
2022/11/24 15:08:35;;;;;;;;;;;19.80;99.90;;;;;;4982111;28;19937;-82
2022/11/24 15:11:02;;;;;;;;;;;19.90;99.90;;;;;;4980721;28;19926;-82
2022/11/24 15:13:32;;;;;;;;;;;19.60;99.90;;;;;;4980416;28;19926;-82
2022/11/24 15:16:01;;;;;;;;;;;19.80;99.90;;;;;;4981110;28;19949;-82
2022/11/24 15:18:30;;;;;;;;;;;20.00;99.90;;;;;;4981382;28;20374;-82
2022/11/24 15:20:57;;;;;;;;;;;19.80;99.90;;;;;;4980529;28;19926;-82
2022/11/24 15:23:25;;;;;;;;;;;19.80;99.90;;;;;;4980691;28;20408;-82
2022/11/24 15:25:53;;;;;;;;;;;19.80;99.90;;;;;;4978042;28;20279;-81
2022/11/24 15:28:24;;;;;;;;;;;19.80;99.90;;;;;;4977463;28;19926;-81
2022/11/24 15:30:52;;;;;;;;;;;19.80;99.90;;;;;;4977367;28;19934;-81
2022/11/24 15:33:19;;;;;;;;;;;19.80;99.90;;;;;;4977141;28;19926;-81
2022/11/24 15:35:46;;;;;;;;;;;19.70;99.90;;;;;;4977103;28;19926;-81
2022/11/24 15:38:12;;;;;;;;;;;19.70;99.90;;;;;;4978525;28;20004;-81
2022/11/24 15:40:39;;;;;;;;;;;19.80;99.90;;;;;;4978066;28;19933;-82
2022/11/24 15:43:16;;;;;;;;;;;19.70;99.90;;;;;;4978441;28;19936;-82
2022/11/24 15:45:43;;;;;;;;;;;19.70;99.90;;;;;;4978059;28;19926;-82
2022/11/24 15:48:09;;;;;;;;;;;19.70;99.90;;;;;;4978611;28;19926;-81
2022/11/24 15:50:36;;;;;;;;;;;19.70;99.90;;;;;;4978976;28;19926;-81
2022/11/24 15:53:03;;;;;;;;;;;19.70;99.90;;;;;;4979415;28;19955;-81
2022/11/24 15:55:29;;;;;;;;;;;19.70;99.90;;;;;;4978642;28;20382;-79
2022/11/24 15:57:56;;;;;;;;;;;19.70;99.90;;;;;;4976992;28;19934;-79
2022/11/24 16:00:24;;;;;;;;;;;20.00;99.90;;;;;;4976050;28;19926;-74
2022/11/24 16:02:51;;;;;;;;;;;19.70;99.90;;;;;;4975283;28;19930;-76
2022/11/24 16:05:17;;;;;;;;;;;19.70;99.90;;;;;;4974932;28;20386;-75
2022/11/24 16:07:44;;;;;;;;;;;19.70;99.90;;;;;;4975165;28;19934;-75
2022/11/24 16:10:16;;;;;;;;;;;19.60;99.90;;;;;;4974447;28;19952;-76
2022/11/24 16:12:42;;;;;;;;;;;19.60;99.90;;;;;;4974920;28;19926;-76
2022/11/24 16:15:10;;;;;;;;;;;19.60;99.90;;;;;;4975391;28;19930;-75
2022/11/24 16:17:38;;;;;;;;;;;19.60;99.90;;;;;;4975403;28;19926;-77
2022/11/24 16:20:05;;;;;;;;;;;19.70;99.90;;;;;;4975330;28;20421;-78
2022/11/24 16:22:31;;;;;;;;;;;19.70;99.90;;;;;;4976317;28;19926;-78
2022/11/24 16:24:58;;;;;;;;;;;19.70;99.90;;;;;;4976157;28;19933;-78
2022/11/24 16:27:25;;;;;;;;;;;19.70;99.90;;;;;;4975825;28;20378;-75
2022/11/24 16:29:51;;;;;;;;;;;19.70;99.90;;;;;;4975293;28;19926;-77
2022/11/24 16:32:18;;;;;;;;;;;19.30;99.90;;;;;;4976113;28;19994;-77
2022/11/24 16:34:46;;;;;;;;;;;19.70;99.90;;;;;;4975813;28;19926;-75
2022/11/24 16:37:12;;;;;;;;;;;19.70;99.90;;;;;;4974952;28;19926;-75
2022/11/24 16:39:39;;;;;;;;;;;19.70;99.90;;;;;;4974963;28;19926;-75
2022/11/24 16:42:05;;;;;;;;;;;19.70;99.90;;;;;;4974769;28;20397;-75
2022/11/24 16:44:33;;;;;;;;;;;19.70;99.90;;;;;;4974843;28;19933;-75
2022/11/24 16:46:59;;;;;;;;;;;19.70;99.90;;;;;;4975322;28;20013;-77
2022/11/24 16:49:26;;;;;;;;;;;19.70;99.90;;;;;;4975235;28;19926;-75
2022/11/24 16:51:54;;;;;;;;;;;19.70;99.90;;;;;;4975143;28;19933;-75
2022/11/24 16:54:21;;;;;;;;;;;19.70;99.90;;;;;;4974633;28;20533;-75
2022/11/24 16:56:47;;;;;;;;;;;19.70;99.90;;;;;;4974839;28;19973;-75
2022/11/24 16:59:14;;;;;;;;;;;19.70;99.90;;;;;;4976036;28;19933;-75
2022/11/24 17:01:40;;;;;;;;;;;19.70;99.90;;;;;;4974714;28;19926;-74
2022/11/24 17:04:07;;;;;;;;;;;19.70;99.90;;;;;;4974630;28;19926;-74
2022/11/24 17:06:34;;;;;;;;;;;19.70;99.90;;;;;;4974728;28;19932;-74
2022/11/24 17:09:01;;;;;;;;;;;19.70;99.90;;;;;;4974508;28;20297;-77
2022/11/24 17:11:28;;;;;;;;;;;19.70;99.90;;;;;;4974889;28;19926;-77
2022/11/24 17:13:56;;;;;;;;;;;19.70;99.90;;;;;;4974432;28;19933;-77
2022/11/24 17:16:23;;;;;;;;;;;19.70;99.90;;;;;;4974328;28;20401;-77
2022/11/24 17:18:51;;;;;;;;;;;19.70;99.90;;;;;;4974586;28;19934;-77
2022/11/24 17:21:19;;;;;;;;;;;19.70;99.90;;;;;;4975199;28;19927;-77
2022/11/24 17:23:46;;;;;;;;;;;19.70;99.90;;;;;;4978168;28;19926;-77
2022/11/24 17:26:14;;;;;;;;;;;19.70;99.90;;;;;;4979183;28;20370;-79
2022/11/24 17:28:41;;;;;;;;;;;19.70;99.90;;;;;;4979243;28;20390;-79
2022/11/24 17:31:09;;;;;;;;;;;19.60;99.90;;;;;;4979211;28;19926;-79
2022/11/24 17:33:35;;;;;;;;;;;19.70;99.90;;;;;;4978851;28;20382;-79
2022/11/24 17:36:02;;;;;;;;;;;19.60;99.90;;;;;;4979223;28;19926;-79
2022/11/24 17:38:30;;;;;;;;;;;19.60;99.90;;;;;;4978085;28;19926;-78
2022/11/24 17:40:57;;;;;;;;;;;19.60;99.90;;;;;;4977842;28;19926;-77
2022/11/24 17:43:26;;;;;;;;;;;19.70;99.90;;;;;;4978996;28;19932;-79
2022/11/24 17:45:53;;;;;;;;;;;19.60;99.90;;;;;;4980123;28;19926;-79
2022/11/24 17:48:20;;;;;;;;;;;19.70;99.90;;;;;;4979129;28;19977;-79
2022/11/24 17:50:46;;;;;;;;;;;19.60;99.90;;;;;;4979596;28;19933;-78
2022/11/24 17:53:13;;;;;;;;;;;19.70;99.90;;;;;;4979463;28;19926;-78
2022/11/24 17:55:40;;;;;;;;;;;19.70;99.90;;;;;;4979768;28;19964;-78
2022/11/24 17:58:07;;;;;;;;;;;19.70;99.90;;;;;;4979650;28;19933;-78
2022/11/24 18:00:35;;;;;;;;;;;19.70;99.90;;;;;;4979653;28;19926;-78
2022/11/24 18:03:02;;;;;;;;;;;19.70;99.90;;;;;;4979783;28;20302;-78
2022/11/24 18:05:28;;;;;;;;;;;19.70;99.90;;;;;;4979744;28;20025;-78
2022/11/24 18:07:55;;;;;;;;;;;19.70;99.90;;;;;;4979539;28;19927;-80
2022/11/24 18:10:21;;;;;;;;;;;19.70;99.90;;;;;;4978530;28;19930;-78
2022/11/24 18:12:48;;;;;;;;;;;19.70;99.90;;;;;;4979354;28;19934;-79
2022/11/24 18:15:14;;;;;;;;;;;19.70;99.90;;;;;;4978987;28;19933;-79
2022/11/24 18:17:42;;;;;;;;;;;19.70;99.90;;;;;;4979206;28;20301;-79
2022/11/24 18:20:09;;;;;;;;;;;19.70;99.90;;;;;;4979058;28;19926;-79
2022/11/24 18:22:36;;;;;;;;;;;19.70;99.90;;;;;;4979139;28;19926;-80
2022/11/24 18:25:03;;;;;;;;;;;19.70;99.90;;;;;;4979738;28;19927;-79
2022/11/24 18:27:30;;;;;;;;;;;19.70;99.90;;;;;;4979495;28;19926;-79
2022/11/24 18:29:56;;;;;;;;;;;19.70;99.90;;;;;;4979729;28;19926;-78
2022/11/24 18:32:23;;;;;;;;;;;19.70;99.90;;;;;;4978992;28;19933;-78
2022/11/24 18:34:51;;;;;;;;;;;19.70;99.90;;;;;;4978964;28;19926;-78
2022/11/24 18:37:17;;;;;;;;;;;19.80;99.90;;;;;;4979512;28;19926;-79
2022/11/24 18:39:44;;;;;;;;;;;19.80;99.90;;;;;;4979983;28;19996;-78
2022/11/24 18:42:11;;;;;;;;;;;19.70;99.90;;;;;;4979602;28;19926;-78
2022/11/24 18:44:37;;;;;;;;;;;19.70;99.90;;;;;;4979698;28;19926;-78
2022/11/24 18:47:04;;;;;;;;;;;19.70;99.90;;;;;;4980411;28;20420;-79
2022/11/24 18:49:31;;;;;;;;;;;19.70;99.90;;;;;;4981404;28;19926;-78
2022/11/24 18:51:59;;;;;;;;;;;19.80;99.90;;;;;;4980255;28;19926;-79
2022/11/24 18:54:26;;;;;;;;;;;19.70;99.90;;;;;;4979326;28;20374;-79
2022/11/24 18:56:53;;;;;;;;;;;19.70;99.90;;;;;;4978935;28;19926;-79
2022/11/24 18:59:20;;;;;;;;;;;19.70;99.90;;;;;;4979628;28;19933;-79
2022/11/24 19:01:48;;;;;;;;;;;19.70;99.90;;;;;;4978856;28;19929;-79
2022/11/24 19:04:15;;;;;;;;;;;19.80;99.90;;;;;;4979078;28;19926;-78
2022/11/24 19:06:41;;;;;;;;;;;19.70;99.90;;;;;;4979699;28;19936;-79
2022/11/24 19:09:11;;;;;;;;;;;19.80;99.90;;;;;;4979170;28;19926;-80
2022/11/24 19:11:38;;;;;;;;;;;19.80;99.90;;;;;;4978771;28;19926;-78
2022/11/24 19:14:06;;;;;;;;;;;19.70;99.90;;;;;;4978944;28;19926;-79
2022/11/24 19:16:33;;;;;;;;;;;19.70;99.90;;;;;;4979236;28;20309;-79
2022/11/24 19:19:01;;;;;;;;;;;19.80;99.90;;;;;;4979157;28;19933;-79
2022/11/24 19:21:29;;;;;;;;;;;19.80;99.90;;;;;;4978750;28;20028;-79
2022/11/24 19:23:56;;;;;;;;;;;19.70;99.90;;;;;;4978751;28;19926;-79
2022/11/24 19:26:24;;;;;;;;;;;19.80;99.90;;;;;;4978899;28;19926;-78
2022/11/24 19:28:50;;;;;;;;;;;19.70;99.90;;;;;;4978154;28;19926;-79
2022/11/24 19:31:18;;;;;;;;;;;19.70;99.90;;;;;;4978466;28;19930;-79
2022/11/24 19:33:44;;;;;;;;;;;19.70;99.90;;;;;;4977936;28;20301;-79
2022/11/24 19:36:12;;;;;;;;;;;19.70;99.90;;;;;;4978115;28;19926;-78
2022/11/24 19:38:39;;;;;;;;;;;19.70;99.90;;;;;;4978233;28;19932;-80
2022/11/24 19:41:07;;;;;;;;;;;19.70;99.90;;;;;;4977988;28;20030;-80
2022/11/24 19:43:35;;;;;;;;;;;19.70;99.90;;;;;;4977640;28;20416;-79
2022/11/24 19:46:03;;;;;;;;;;;19.70;99.90;;;;;;4977251;28;19930;-79
2022/11/24 19:48:30;;;;;;;;;;;19.70;99.90;;;;;;4978008;28;20346;-79
2022/11/24 19:50:59;;;;;;;;;;;19.70;99.90;;;;;;4977355;28;20206;-78
2022/11/24 19:53:26;;;;;;;;;;;19.70;99.90;;;;;;4977630;28;19926;-78
2022/11/24 19:55:53;;;;;;;;;;;19.70;99.90;;;;;;4978113;28;19976;-78
2022/11/24 19:58:19;;;;;;;;;;;19.70;99.90;;;;;;4978102;28;19926;-80
2022/11/24 20:00:47;;;;;;;;;;;19.70;99.90;;;;;;4978021;28;19926;-79
2022/11/24 20:03:14;;;;;;;;;;;19.70;99.90;;;;;;4977449;28;19933;-79
2022/11/24 20:05:40;;;;;;;;;;;19.70;99.90;;;;;;4978410;28;19926;-79
2022/11/24 20:08:07;;;;;;;;;;;19.70;99.90;;;;;;4978097;28;20502;-79
2022/11/24 20:10:34;;;;;;;;;;;19.70;99.90;;;;;;4978136;28;19933;-78
2022/11/24 20:13:00;;;;;;;;;;;19.80;99.90;;;;;;4977857;28;19926;-80
2022/11/24 20:15:27;;;;;;;;;;;19.70;99.90;;;;;;4978073;28;19926;-80
2022/11/24 20:17:55;;;;;;;;;;;19.80;99.90;;;;;;4979154;28;19988;-81
2022/11/24 20:20:22;;;;;;;;;;;19.80;99.90;;;;;;4978298;28;19937;-81
2022/11/24 20:22:48;;;;;;;;;;;19.80;99.90;;;;;;4976957;28;19933;-79
2022/11/24 20:25:15;;;;;;;;;;;19.90;99.90;;;;;;4976647;28;19933;-79
2022/11/24 20:27:42;;;;;;;;;;;19.80;99.90;;;;;;4976251;28;19930;-79
2022/11/24 20:30:09;;;;;;;;;;;19.80;99.90;;;;;;4976150;28;19973;-78
2022/11/24 20:32:35;;;;;;;;;;;19.80;99.90;;;;;;4976186;28;19926;-78
2022/11/24 20:35:03;;;;;;;;;;;19.80;99.90;;;;;;4976587;28;20021;-78
2022/11/24 20:37:30;;;;;;;;;;;19.70;99.90;;;;;;4976653;28;20297;-78
2022/11/24 20:40:01;;;;;;;;;;;19.70;99.90;;;;;;4976645;28;19961;-78
2022/11/24 20:42:27;;;;;;;;;;;19.70;99.90;;;;;;4976252;28;20385;-78
2022/11/24 20:44:54;;;;;;;;;;;19.70;99.90;;;;;;5000505;23;19933;-79
2022/11/24 20:47:20;;;;;;;;;;;19.70;99.90;;;;;;4977134;28;20286;-79
2022/11/24 20:49:48;;;;;;;;;;;19.70;99.90;;;;;;4977193;28;19926;-78
2022/11/24 20:52:16;;;;;;;;;;;19.60;99.90;;;;;;4977000;28;20394;-78
2022/11/24 20:54:45;;;;;;;;;;;19.70;99.90;;;;;;4976917;28;19930;-78
2022/11/24 20:57:12;;;;;;;;;;;19.60;99.90;;;;;;4979176;28;19980;-79
2022/11/24 20:59:38;;;;;;;;;;;19.60;99.90;;;;;;4981091;28;19926;-79
2022/11/24 21:02:05;;;;;;;;;;;19.60;99.90;;;;;;4980868;28;19926;-79
2022/11/24 21:04:33;;;;;;;;;;;19.60;99.90;;;;;;4980208;28;19949;-79
2022/11/24 21:07:00;;;;;;;;;;;19.60;99.90;;;;;;4979334;28;19969;-78
2022/11/24 21:09:28;;;;;;;;;;;19.60;99.90;;;;;;4978042;28;19933;-77
2022/11/24 21:11:54;;;;;;;;;;;19.50;99.90;;;;;;4978338;28;19926;-75
2022/11/24 21:14:21;;;;;;;;;;;19.60;99.90;;;;;;4977989;28;20309;-77
2022/11/24 21:16:48;;;;;;;;;;;19.60;99.90;;;;;;4978406;28;19926;-77
2022/11/24 21:19:17;;;;;;;;;;;19.50;99.90;;;;;;4978269;28;19926;-77
2022/11/24 21:21:43;;;;;;;;;;;19.50;99.90;;;;;;4977875;28;20389;-77
2022/11/24 21:24:11;;;;;;;;;;;19.50;99.90;;;;;;4978012;28;19929;-77
2022/11/24 21:26:39;;;;;;;;;;;19.50;99.90;;;;;;4978131;28;19930;-77
2022/11/24 21:29:06;;;;;;;;;;;19.50;99.90;;;;;;4978089;28;19926;-77
2022/11/24 21:31:34;;;;;;;;;;;19.50;99.90;;;;;;4978108;28;19926;-77
2022/11/24 21:34:01;;;;;;;;;;;19.50;99.90;;;;;;4978503;28;20377;-78
2022/11/24 21:36:27;;;;;;;;;;;19.50;99.90;;;;;;4979519;28;19933;-79
2022/11/24 21:38:55;;;;;;;;;;;19.50;99.90;;;;;;4979631;28;20400;-78
2022/11/24 21:41:22;;;;;;;;;;;19.40;99.90;;;;;;4979335;28;19926;-78
2022/11/24 21:43:51;;;;;;;;;;;19.50;99.90;;;;;;4978245;28;20017;-78
2022/11/24 21:46:18;;;;;;;;;;;19.40;99.90;;;;;;4978145;28;19926;-77
2022/11/24 21:48:45;;;;;;;;;;;19.50;99.90;;;;;;4977799;28;19926;-78
2022/11/24 21:51:12;;;;;;;;;;;19.50;99.90;;;;;;4978211;28;19926;-78
2022/11/24 21:53:39;;;;;;;;;;;19.50;99.90;;;;;;4977997;28;19926;-78
2022/11/24 21:56:08;;;;;;;;;;;19.50;99.90;;;;;;4977747;28;19929;-78
2022/11/24 21:58:35;;;;;;;;;;;19.40;99.90;;;;;;4978516;28;20370;-78
2022/11/24 22:01:03;;;;;;;;;;;19.40;99.90;;;;;;4979422;28;20017;-78
2022/11/24 22:03:30;;;;;;;;;;;19.40;99.90;;;;;;4979721;28;19956;-79
2022/11/24 22:05:57;;;;;;;;;;;19.50;99.90;;;;;;4979240;28;20341;-78
2022/11/24 22:08:24;;;;;;;;;;;19.40;99.90;;;;;;4976743;28;19926;-77
2022/11/24 22:10:51;;;;;;;;;;;19.40;99.90;;;;;;4977713;28;19926;-77
2022/11/24 22:13:18;;;;;;;;;;;19.40;99.90;;;;;;4977189;28;19926;-77
2022/11/24 22:15:45;;;;;;;;;;;19.40;99.90;;;;;;4977211;28;20400;-77
2022/11/24 22:18:13;;;;;;;;;;;19.40;99.90;;;;;;4977366;28;19933;-77
2022/11/24 22:20:39;;;;;;;;;;;19.40;99.90;;;;;;4977503;28;19926;-77
2022/11/24 22:23:06;;;;;;;;;;;19.40;99.90;;;;;;4976966;28;19926;-76
2022/11/24 22:25:33;;;;;;;;;;;19.40;99.90;;;;;;4976965;28;19926;-76
2022/11/24 22:27:59;;;;;;;;;;;19.40;99.90;;;;;;4976918;28;19926;-76
2022/11/24 22:30:26;;;;;;;;;;;19.40;99.90;;;;;;4976599;28;20429;-76
2022/11/24 22:32:52;;;;;;;;;;;19.40;99.90;;;;;;4976517;28;20289;-76
2022/11/24 22:35:20;;;;;;;;;;;19.40;99.90;;;;;;4976722;28;19933;-76
2022/11/24 22:37:47;;;;;;;;;;;19.40;99.90;;;;;;4976796;28;19926;-76
2022/11/24 22:40:14;;;;;;;;;;;19.40;99.90;;;;;;4976461;28;20385;-76
2022/11/24 22:42:40;;;;;;;;;;;19.40;99.90;;;;;;4976323;28;19926;-77
2022/11/24 22:45:07;;;;;;;;;;;19.40;99.90;;;;;;4976237;28;19930;-77
2022/11/24 22:47:34;;;;;;;;;;;19.40;99.90;;;;;;4976581;28;19965;-77
2022/11/24 22:50:00;;;;;;;;;;;19.40;99.90;;;;;;4976474;28;19926;-77
2022/11/24 22:52:28;;;;;;;;;;;19.40;99.90;;;;;;4976486;28;19927;-77
2022/11/24 22:54:55;;;;;;;;;;;19.40;99.90;;;;;;4976382;28;19952;-77
2022/11/24 22:57:21;;;;;;;;;;;19.40;99.90;;;;;;4976073;28;20412;-76
2022/11/24 22:59:48;;;;;;;;;;;19.40;99.90;;;;;;4976358;28;19926;-76
2022/11/24 23:02:15;;;;;;;;;;;19.30;99.90;;;;;;4976252;28;19926;-76
2022/11/24 23:04:41;;;;;;;;;;;19.40;99.90;;;;;;4976207;28;19930;-76
2022/11/24 23:07:08;;;;;;;;;;;19.40;99.90;;;;;;4976238;28;20294;-78
2022/11/24 23:09:36;;;;;;;;;;;19.40;99.90;;;;;;4977149;28;20301;-78
2022/11/24 23:12:02;;;;;;;;;;;19.30;99.90;;;;;;4977133;28;19926;-78
2022/11/24 23:14:29;;;;;;;;;;;19.30;99.90;;;;;;4977010;28;19926;-78
2022/11/24 23:16:56;;;;;;;;;;;19.30;99.90;;;;;;4977367;28;19926;-78
2022/11/24 23:19:22;;;;;;;;;;;19.30;99.90;;;;;;4977347;28;19933;-78
2022/11/24 23:21:49;;;;;;;;;;;19.40;99.90;;;;;;4977292;28;20378;-78
2022/11/24 23:24:15;;;;;;;;;;;19.40;99.90;;;;;;4976370;28;20314;-78
2022/11/24 23:26:43;;;;;;;;;;;19.40;99.90;;;;;;4976239;28;19926;-78
2022/11/24 23:29:11;;;;;;;;;;;19.40;99.90;;;;;;4975985;28;19930;-78
2022/11/24 23:31:38;;;;;;;;;;;19.40;99.90;;;;;;4976276;28;19972;-78
2022/11/24 23:34:05;;;;;;;;;;;19.30;99.90;;;;;;4976091;28;19948;-78
2022/11/24 23:36:32;;;;;;;;;;;19.30;99.90;;;;;;4975798;28;19930;-77
2022/11/24 23:39:01;;;;;;;;;;;19.30;99.90;;;;;;4975652;28;19934;-77
2022/11/24 23:41:29;;;;;;;;;;;19.30;99.90;;;;;;4975304;28;19947;-77
2022/11/24 23:43:57;;;;;;;;;;;19.30;99.90;;;;;;4975035;28;20302;-77
2022/11/24 23:46:24;;;;;;;;;;;19.30;99.90;;;;;;4975584;28;19927;-77
2022/11/24 23:48:52;;;;;;;;;;;19.30;99.90;;;;;;4975502;28;19937;-77
2022/11/24 23:51:20;;;;;;;;;;;19.30;99.90;;;;;;4975482;28;19933;-77
2022/11/24 23:53:46;;;;;;;;;;;19.30;99.90;;;;;;4975377;28;19926;-77
2022/11/24 23:56:14;;;;;;;;;;;19.30;99.90;;;;;;4975404;28;19926;-77
2022/11/24 23:58:40;;;;;;;;;;;19.30;99.90;;;;;;4975404;28;19926;-77
